Aviation Digital Data Service (ADDS)

Output produced by METARs form (1624 UTC 03 June 2020)
found at http://www.aviationweather.gov/metar/data/
 
METAR text: LTFJ 031550Z 22006KT 170V250 9999 SCT030 SCT100 19/12 Q1009 NOSIG RMK RWY24 22006KT
Conditions at: LTFJ (SABIHA GOKCEN , TR) observed 1550 UTC 03 June 2020
Temperature: 19.0°C (66°F)
Dewpoint: 12.0°C (54°F) [RH = 64%]
Pressure (altimeter): 29.79 inches Hg (1009.0 mb)
Winds: from the SW (220 degrees) at 7 MPH (6 knots; 3.1 m/s)
Visibility: 6 or more miles (10+ km)
Ceiling: at least 12,000 feet AGL
Clouds: scattered clouds at 3000 feet AGL
scattered clouds at 10000 feet AGL
Weather: no significant weather observed at this time

METAR text: LTFJ 031450Z VRB02KT 9999 SCT035 BKN100 20/11 Q1009 NOSIG RMK RWY24 VRB02KT
Conditions at: LTFJ (SABIHA GOKCEN , TR) observed 1450 UTC 03 June 2020
Temperature: 20.0°C (68°F)
Dewpoint: 11.0°C (52°F) [RH = 56%]
Pressure (altimeter): 29.79 inches Hg (1009.0 mb)
Winds: variable direction winds at 2 MPH (2 knots; 1.0 m/s)
Visibility: 6 or more miles (10+ km)
Ceiling: 10000 feet AGL
Clouds: scattered clouds at 3500 feet AGL
broken clouds at 10000 feet AGL
Weather: no significant weather observed at this time

METAR text: LTFJ 031420Z VRB03KT 9999 SCT035 BKN100 20/12 Q1009 NOSIG RMK RWY24 VRB02KT
Conditions at: LTFJ (SABIHA GOKCEN , TR) observed 1420 UTC 03 June 2020
Temperature: 20.0°C (68°F)
Dewpoint: 12.0°C (54°F) [RH = 60%]
Pressure (altimeter): 29.79 inches Hg (1009.0 mb)
Winds: variable direction winds at 3 MPH (3 knots; 1.5 m/s)
Visibility: 6 or more miles (10+ km)
Ceiling: 10000 feet AGL
Clouds: scattered clouds at 3500 feet AGL
broken clouds at 10000 feet AGL
Weather: no significant weather observed at this time

METAR text: LTFJ 031350Z 18004KT 130V240 9999 SCT035 BKN100 19/12 Q1009 NOSIG RMK RWY24 22004KT 180V260
Conditions at: LTFJ (SABIHA GOKCEN , TR) observed 1350 UTC 03 June 2020
Temperature: 19.0°C (66°F)
Dewpoint: 12.0°C (54°F) [RH = 64%]
Pressure (altimeter): 29.79 inches Hg (1009.0 mb)
Winds: from the S (180 degrees) at 5 MPH (4 knots; 2.1 m/s)
Visibility: 6 or more miles (10+ km)
Ceiling: 10000 feet AGL
Clouds: scattered clouds at 3500 feet AGL
broken clouds at 10000 feet AGL
Weather: no significant weather observed at this time

METAR text: LTFJ 031320Z 18007KT 140V220 9999 SCT030 BKN100 19/13 Q1010 NOSIG RMK RWY24 21006KT 160V240
Conditions at: LTFJ (SABIHA GOKCEN , TR) observed 1320 UTC 03 June 2020
Temperature: 19.0°C (66°F)
Dewpoint: 13.0°C (55°F) [RH = 68%]
Pressure (altimeter): 29.82 inches Hg (1010.0 mb)
Winds: from the S (180 degrees) at 8 MPH (7 knots; 3.6 m/s)
Visibility: 6 or more miles (10+ km)
Ceiling: 10000 feet AGL
Clouds: scattered clouds at 3000 feet AGL
broken clouds at 10000 feet AGL
Weather: no significant weather observed at this time

METAR text: LTFJ 031250Z 20006KT 150V230 9999 SCT030 BKN100 19/12 Q1010 NOSIG RMK RWY24 21007KT
Conditions at: LTFJ (SABIHA GOKCEN , TR) observed 1250 UTC 03 June 2020
Temperature: 19.0°C (66°F)
Dewpoint: 12.0°C (54°F) [RH = 64%]
Pressure (altimeter): 29.82 inches Hg (1010.0 mb)
Winds: from the SSW (200 degrees) at 7 MPH (6 knots; 3.1 m/s)
Visibility: 6 or more miles (10+ km)
Ceiling: 10000 feet AGL
Clouds: scattered clouds at 3000 feet AGL
broken clouds at 10000 feet AGL
Weather: no significant weather observed at this time

METAR text: LTFJ 031220Z 22008KT 9999 FEW020TCU SCT030 BKN100 19/12 Q1010 NOSIG RMK RWY24 20008KT
Conditions at: LTFJ (SABIHA GOKCEN , TR) observed 1220 UTC 03 June 2020
Temperature: 19.0°C (66°F)
Dewpoint: 12.0°C (54°F) [RH = 64%]
Pressure (altimeter): 29.82 inches Hg (1010.0 mb)
Winds: from the SW (220 degrees) at 9 MPH (8 knots; 4.1 m/s)
Visibility: 6 or more miles (10+ km)
Ceiling: 10000 feet AGL
Clouds: few clouds at 2000 feet AGL
scattered clouds at 3000 feet AGL
broken clouds at 10000 feet AGL
Weather: no significant weather observed at this time

METAR text: LTFJ 031150Z 20006KT 180V240 9999 FEW020TCU SCT030 BKN100 19/11 Q1010 NOSIG RMK RWY24 17003KT 110V280
Conditions at: LTFJ (SABIHA GOKCEN , TR) observed 1150 UTC 03 June 2020
Temperature: 19.0°C (66°F)
Dewpoint: 11.0°C (52°F) [RH = 60%]
Pressure (altimeter): 29.82 inches Hg (1010.0 mb)
Winds: from the SSW (200 degrees) at 7 MPH (6 knots; 3.1 m/s)
Visibility: 6 or more miles (10+ km)
Ceiling: 10000 feet AGL
Clouds: few clouds at 2000 feet AGL
scattered clouds at 3000 feet AGL
broken clouds at 10000 feet AGL
Weather: no significant weather observed at this time

METAR text: LTFJ 031120Z 21003KT 160V250 9999 FEW020TCU SCT030 BKN100 19/13 Q1010 NOSIG RMK RWY24 VRB02KT
Conditions at: LTFJ (SABIHA GOKCEN , TR) observed 1120 UTC 03 June 2020
Temperature: 19.0°C (66°F)
Dewpoint: 13.0°C (55°F) [RH = 68%]
Pressure (altimeter): 29.82 inches Hg (1010.0 mb)
Winds: from the SSW (210 degrees) at 3 MPH (3 knots; 1.5 m/s)
Visibility: 6 or more miles (10+ km)
Ceiling: 10000 feet AGL
Clouds: few clouds at 2000 feet AGL
scattered clouds at 3000 feet AGL
broken clouds at 10000 feet AGL
Weather: no significant weather observed at this time

METAR text: LTFJ 031050Z 02003KT 300V060 9999 SCT026 BKN100 18/12 Q1010 NOSIG RMK RWY24 02004KT 270V060
Conditions at: LTFJ (SABIHA GOKCEN , TR) observed 1050 UTC 03 June 2020
Temperature: 18.0°C (64°F)
Dewpoint: 12.0°C (54°F) [RH = 68%]
Pressure (altimeter): 29.82 inches Hg (1010.0 mb)
Winds: from the NNE (20 degrees) at 3 MPH (3 knots; 1.5 m/s)
Visibility: 6 or more miles (10+ km)
Ceiling: 10000 feet AGL
Clouds: scattered clouds at 2600 feet AGL
broken clouds at 10000 feet AGL
Weather: no significant weather observed at this time

METAR text: LTFJ 031020Z VRB03KT 9999 SCT030 BKN100 18/12 Q1010 NOSIG RMK RWY24 VRB02KT
Conditions at: LTFJ (SABIHA GOKCEN , TR) observed 1020 UTC 03 June 2020
Temperature: 18.0°C (64°F)
Dewpoint: 12.0°C (54°F) [RH = 68%]
Pressure (altimeter): 29.82 inches Hg (1010.0 mb)
Winds: variable direction winds at 3 MPH (3 knots; 1.5 m/s)
Visibility: 6 or more miles (10+ km)
Ceiling: 10000 feet AGL
Clouds: scattered clouds at 3000 feet AGL
broken clouds at 10000 feet AGL
Weather: no significant weather observed at this time

METAR text: LTFJ 030950Z 04004KT 360V070 9999 SCT030 BKN100 18/12 Q1010 NOSIG RMK RWY24 05003KT
Conditions at: LTFJ (SABIHA GOKCEN , TR) observed 0950 UTC 03 June 2020
Temperature: 18.0°C (64°F)
Dewpoint: 12.0°C (54°F) [RH = 68%]
Pressure (altimeter): 29.82 inches Hg (1010.0 mb)
Winds: from the NE (40 degrees) at 5 MPH (4 knots; 2.1 m/s)
Visibility: 6 or more miles (10+ km)
Ceiling: 10000 feet AGL
Clouds: scattered clouds at 3000 feet AGL
broken clouds at 10000 feet AGL
Weather: no significant weather observed at this time

METAR text: LTFJ 030920Z 05005KT 9999 SCT030 BKN100 17/13 Q1010 NOSIG RMK RWY24 04005KT
Conditions at: LTFJ (SABIHA GOKCEN , TR) observed 0920 UTC 03 June 2020
Temperature: 17.0°C (63°F)
Dewpoint: 13.0°C (55°F) [RH = 77%]
Pressure (altimeter): 29.82 inches Hg (1010.0 mb)
Winds: from the NE (50 degrees) at 6 MPH (5 knots; 2.6 m/s)
Visibility: 6 or more miles (10+ km)
Ceiling: 10000 feet AGL
Clouds: scattered clouds at 3000 feet AGL
broken clouds at 10000 feet AGL
Weather: no significant weather observed at this time

METAR text: LTFJ 030850Z 06006KT 030V100 9999 FEW020TCU SCT034 BKN100 17/13 Q1010 NOSIG RMK RWY24 06004KT 030V090
Conditions at: LTFJ (SABIHA GOKCEN , TR) observed 0850 UTC 03 June 2020
Temperature: 17.0°C (63°F)
Dewpoint: 13.0°C (55°F) [RH = 77%]
Pressure (altimeter): 29.82 inches Hg (1010.0 mb)
Winds: from the ENE (60 degrees) at 7 MPH (6 knots; 3.1 m/s)
Visibility: 6 or more miles (10+ km)
Ceiling: 10000 feet AGL
Clouds: few clouds at 2000 feet AGL
scattered clouds at 3400 feet AGL
broken clouds at 10000 feet AGL
Weather: no significant weather observed at this time

METAR text: LTFJ 030820Z 06004KT 020V120 9999 FEW020TCU SCT034 BKN100 17/14 Q1010 RESHRA NOSIG RMK RWY24 04003KT
Conditions at: LTFJ (SABIHA GOKCEN , TR) observed 0820 UTC 03 June 2020
Temperature: 17.0°C (63°F)
Dewpoint: 14.0°C (57°F) [RH = 82%]
Pressure (altimeter): 29.82 inches Hg (1010.0 mb)
Winds: from the ENE (60 degrees) at 5 MPH (4 knots; 2.1 m/s)
Visibility: 6 or more miles (10+ km)
Ceiling: 10000 feet AGL
Clouds: few clouds at 2000 feet AGL
scattered clouds at 3400 feet AGL
broken clouds at 10000 feet AGL
Weather: no significant weather observed at this time

METAR text: LTFJ 030750Z 25005KT 230V290 9999 -SHRA FEW020TCU SCT034 BKN100 16/13 Q1010 NOSIG RMK RWY24 VRB01KT
Conditions at: LTFJ (SABIHA GOKCEN , TR) observed 0750 UTC 03 June 2020
Temperature: 16.0°C (61°F)
Dewpoint: 13.0°C (55°F) [RH = 82%]
Pressure (altimeter): 29.82 inches Hg (1010.0 mb)
Winds: from the WSW (250 degrees) at 6 MPH (5 knots; 2.6 m/s)
Visibility: 6 or more miles (10+ km)
Ceiling: 10000 feet AGL
Clouds: few clouds at 2000 feet AGL
scattered clouds at 3400 feet AGL
broken clouds at 10000 feet AGL
Weather: -SHRA  (light rain showers)

METAR text: LTFJ 030720Z 20004KT 9999 -SHRA FEW020TCU SCT034 BKN100 16/14 Q1010 NOSIG RMK RWY24 06004KT 020V080
Conditions at: LTFJ (SABIHA GOKCEN , TR) observed 0720 UTC 03 June 2020
Temperature: 16.0°C (61°F)
Dewpoint: 14.0°C (57°F) [RH = 88%]
Pressure (altimeter): 29.82 inches Hg (1010.0 mb)
Winds: from the SSW (200 degrees) at 5 MPH (4 knots; 2.1 m/s)
Visibility: 6 or more miles (10+ km)
Ceiling: 10000 feet AGL
Clouds: few clouds at 2000 feet AGL
scattered clouds at 3400 feet AGL
broken clouds at 10000 feet AGL
Weather: -SHRA  (light rain showers)

METAR text: LTFJ 030650Z 19003KT 150V240 9999 FEW020TCU SCT034 BKN100 16/13 Q1010 NOSIG RMK RWY24 03005KT
Conditions at: LTFJ (SABIHA GOKCEN , TR) observed 0650 UTC 03 June 2020
Temperature: 16.0°C (61°F)
Dewpoint: 13.0°C (55°F) [RH = 82%]
Pressure (altimeter): 29.82 inches Hg (1010.0 mb)
Winds: from the S (190 degrees) at 3 MPH (3 knots; 1.5 m/s)
Visibility: 6 or more miles (10+ km)
Ceiling: 10000 feet AGL
Clouds: few clouds at 2000 feet AGL
scattered clouds at 3400 feet AGL
broken clouds at 10000 feet AGL
Weather: no significant weather observed at this time

METAR text: LTFJ 030620Z VRB02KT 9000 SCT033 BKN100 16/13 Q1009 NOSIG RMK RWY24 00000KT
Conditions at: LTFJ (SABIHA GOKCEN , TR) observed 0620 UTC 03 June 2020
Temperature: 16.0°C (61°F)
Dewpoint: 13.0°C (55°F) [RH = 82%]
Pressure (altimeter): 29.79 inches Hg (1009.0 mb)
Winds: variable direction winds at 2 MPH (2 knots; 1.0 m/s)
Visibility: 6 miles ( 9 km)
Ceiling: 10000 feet AGL
Clouds: scattered clouds at 3300 feet AGL
broken clouds at 10000 feet AGL
Weather: no significant weather observed at this time

METAR text: LTFJ 030550Z VRB02KT 9000 SCT033 BKN100 16/13 Q1009 NOSIG RMK RWY24 VRB01KT
Conditions at: LTFJ (SABIHA GOKCEN , TR) observed 0550 UTC 03 June 2020
Temperature: 16.0°C (61°F)
Dewpoint: 13.0°C (55°F) [RH = 82%]
Pressure (altimeter): 29.79 inches Hg (1009.0 mb)
Winds: variable direction winds at 2 MPH (2 knots; 1.0 m/s)
Visibility: 6 miles ( 9 km)
Ceiling: 10000 feet AGL
Clouds: scattered clouds at 3300 feet AGL
broken clouds at 10000 feet AGL
Weather: no significant weather observed at this time

METAR text: LTFJ 030520Z VRB02KT 9000 SCT033 BKN100 16/13 Q1009 NOSIG RMK RWY24 VRB02KT
Conditions at: LTFJ (SABIHA GOKCEN , TR) observed 0520 UTC 03 June 2020
Temperature: 16.0°C (61°F)
Dewpoint: 13.0°C (55°F) [RH = 82%]
Pressure (altimeter): 29.79 inches Hg (1009.0 mb)
Winds: variable direction winds at 2 MPH (2 knots; 1.0 m/s)
Visibility: 6 miles ( 9 km)
Ceiling: 10000 feet AGL
Clouds: scattered clouds at 3300 feet AGL
broken clouds at 10000 feet AGL
Weather: no significant weather observed at this time

METAR text: LTFJ 030450Z 19003KT 140V250 9000 SCT033 BKN100 16/13 Q1009 NOSIG RMK RWY24 20003KT
Conditions at: LTFJ (SABIHA GOKCEN , TR) observed 0450 UTC 03 June 2020
Temperature: 16.0°C (61°F)
Dewpoint: 13.0°C (55°F) [RH = 82%]
Pressure (altimeter): 29.79 inches Hg (1009.0 mb)
Winds: from the S (190 degrees) at 3 MPH (3 knots; 1.5 m/s)
Visibility: 6 miles ( 9 km)
Ceiling: 10000 feet AGL
Clouds: scattered clouds at 3300 feet AGL
broken clouds at 10000 feet AGL
Weather: no significant weather observed at this time

METAR text: LTFJ 030420Z 23003KT 200V260 9000 SCT033 BKN100 16/13 Q1008 NOSIG RMK RWY24 22003KT
Conditions at: LTFJ (SABIHA GOKCEN , TR) observed 0420 UTC 03 June 2020
Temperature: 16.0°C (61°F)
Dewpoint: 13.0°C (55°F) [RH = 82%]
Pressure (altimeter): 29.76 inches Hg (1008.0 mb)
Winds: from the SW (230 degrees) at 3 MPH (3 knots; 1.5 m/s)
Visibility: 6 miles ( 9 km)
Ceiling: 10000 feet AGL
Clouds: scattered clouds at 3300 feet AGL
broken clouds at 10000 feet AGL
Weather: no significant weather observed at this time

METAR text: LTFJ 030350Z 23003KT 190V260 9000 SCT033 BKN100 16/13 Q1008 NOSIG RMK RWY24 00000KT
Conditions at: LTFJ (SABIHA GOKCEN , TR) observed 0350 UTC 03 June 2020
Temperature: 16.0°C (61°F)
Dewpoint: 13.0°C (55°F) [RH = 82%]
Pressure (altimeter): 29.76 inches Hg (1008.0 mb)
Winds: from the SW (230 degrees) at 3 MPH (3 knots; 1.5 m/s)
Visibility: 6 miles ( 9 km)
Ceiling: 10000 feet AGL
Clouds: scattered clouds at 3300 feet AGL
broken clouds at 10000 feet AGL
Weather: no significant weather observed at this time

METAR text: LTFJ 030320Z 25003KT 9000 SCT033 BKN100 15/13 Q1008 NOSIG RMK RWY24 00000KT
Conditions at: LTFJ (SABIHA GOKCEN , TR) observed 0320 UTC 03 June 2020
Temperature: 15.0°C (59°F)
Dewpoint: 13.0°C (55°F) [RH = 88%]
Pressure (altimeter): 29.76 inches Hg (1008.0 mb)
Winds: from the WSW (250 degrees) at 3 MPH (3 knots; 1.5 m/s)
Visibility: 6 miles ( 9 km)
Ceiling: 10000 feet AGL
Clouds: scattered clouds at 3300 feet AGL
broken clouds at 10000 feet AGL
Weather: no significant weather observed at this time

METAR text: LTFJ 030250Z 00000KT 9999 SCT033 BKN100 15/13 Q1008 NOSIG RMK RWY24 00000KT
Conditions at: LTFJ (SABIHA GOKCEN , TR) observed 0250 UTC 03 June 2020
Temperature: 15.0°C (59°F)
Dewpoint: 13.0°C (55°F) [RH = 88%]
Pressure (altimeter): 29.76 inches Hg (1008.0 mb)
Winds: calm
Visibility: 6 or more miles (10+ km)
Ceiling: 10000 feet AGL
Clouds: scattered clouds at 3300 feet AGL
broken clouds at 10000 feet AGL
Weather: no significant weather observed at this time

METAR text: LTFJ 030220Z 00000KT 9999 SCT033 BKN100 15/13 Q1008 NOSIG RMK RWY24 00000KT
Conditions at: LTFJ (SABIHA GOKCEN , TR) observed 0220 UTC 03 June 2020
Temperature: 15.0°C (59°F)
Dewpoint: 13.0°C (55°F) [RH = 88%]
Pressure (altimeter): 29.76 inches Hg (1008.0 mb)
Winds: calm
Visibility: 6 or more miles (10+ km)
Ceiling: 10000 feet AGL
Clouds: scattered clouds at 3300 feet AGL
broken clouds at 10000 feet AGL
Weather: no significant weather observed at this time

METAR text: LTFJ 030150Z 14003KT 9999 SCT033 BKN100 15/13 Q1008 NOSIG RMK RWY24 11002KT
Conditions at: LTFJ (SABIHA GOKCEN , TR) observed 0150 UTC 03 June 2020
Temperature: 15.0°C (59°F)
Dewpoint: 13.0°C (55°F) [RH = 88%]
Pressure (altimeter): 29.76 inches Hg (1008.0 mb)
Winds: from the SE (140 degrees) at 3 MPH (3 knots; 1.5 m/s)
Visibility: 6 or more miles (10+ km)
Ceiling: 10000 feet AGL
Clouds: scattered clouds at 3300 feet AGL
broken clouds at 10000 feet AGL
Weather: no significant weather observed at this time

METAR text: LTFJ 030120Z VRB01KT 9999 SCT033 BKN100 15/13 Q1008 NOSIG RMK RWY24 VRB02KT
Conditions at: LTFJ (SABIHA GOKCEN , TR) observed 0120 UTC 03 June 2020
Temperature: 15.0°C (59°F)
Dewpoint: 13.0°C (55°F) [RH = 88%]
Pressure (altimeter): 29.76 inches Hg (1008.0 mb)
Winds: variable direction winds at 1 MPH (1 knots; 0.5 m/s)
Visibility: 6 or more miles (10+ km)
Ceiling: 10000 feet AGL
Clouds: scattered clouds at 3300 feet AGL
broken clouds at 10000 feet AGL
Weather: no significant weather observed at this time

METAR text: LTFJ 030050Z 00000KT 9999 SCT033 BKN100 15/13 Q1008 NOSIG RMK RWY24 36001KT
Conditions at: LTFJ (SABIHA GOKCEN , TR) observed 0050 UTC 03 June 2020
Temperature: 15.0°C (59°F)
Dewpoint: 13.0°C (55°F) [RH = 88%]
Pressure (altimeter): 29.76 inches Hg (1008.0 mb)
Winds: calm
Visibility: 6 or more miles (10+ km)
Ceiling: 10000 feet AGL
Clouds: scattered clouds at 3300 feet AGL
broken clouds at 10000 feet AGL
Weather: no significant weather observed at this time

METAR text: LTFJ 030020Z 01002KT 9999 SCT033 BKN100 15/13 Q1008 NOSIG RMK RWY24 35002KT
Conditions at: LTFJ (SABIHA GOKCEN , TR) observed 0020 UTC 03 June 2020
Temperature: 15.0°C (59°F)
Dewpoint: 13.0°C (55°F) [RH = 88%]
Pressure (altimeter): 29.76 inches Hg (1008.0 mb)
Winds: from the N (10 degrees) at 2 MPH (2 knots; 1.0 m/s)
Visibility: 6 or more miles (10+ km)
Ceiling: 10000 feet AGL
Clouds: scattered clouds at 3300 feet AGL
broken clouds at 10000 feet AGL
Weather: no significant weather observed at this time

METAR text: LTFJ 022350Z 11001KT 9999 SCT033 15/13 Q1008 NOSIG RMK RWY24 10002KT
Conditions at: LTFJ (SABIHA GOKCEN , TR) observed 2350 UTC 02 June 2020
Temperature: 15.0°C (59°F)
Dewpoint: 13.0°C (55°F) [RH = 88%]
Pressure (altimeter): 29.76 inches Hg (1008.0 mb)
Winds: from the ESE (110 degrees) at 1 MPH (1 knots; 0.5 m/s)
Visibility: 6 or more miles (10+ km)
Ceiling: at least 12,000 feet AGL
Clouds: scattered clouds at 3300 feet AGL
Weather: no significant weather observed at this time

METAR text: LTFJ 022320Z 06003KT 9999 SCT035 14/13 Q1008 NOSIG RMK RWY24 36001KT
Conditions at: LTFJ (SABIHA GOKCEN , TR) observed 2320 UTC 02 June 2020
Temperature: 14.0°C (57°F)
Dewpoint: 13.0°C (55°F) [RH = 94%]
Pressure (altimeter): 29.76 inches Hg (1008.0 mb)
Winds: from the ENE (60 degrees) at 3 MPH (3 knots; 1.5 m/s)
Visibility: 6 or more miles (10+ km)
Ceiling: at least 12,000 feet AGL
Clouds: scattered clouds at 3500 feet AGL
Weather: no significant weather observed at this time

METAR text: LTFJ 022250Z 05006KT 9999 SCT035 14/13 Q1008 NOSIG RMK RWY24 05003KT
Conditions at: LTFJ (SABIHA GOKCEN , TR) observed 2250 UTC 02 June 2020
Temperature: 14.0°C (57°F)
Dewpoint: 13.0°C (55°F) [RH = 94%]
Pressure (altimeter): 29.76 inches Hg (1008.0 mb)
Winds: from the NE (50 degrees) at 7 MPH (6 knots; 3.1 m/s)
Visibility: 6 or more miles (10+ km)
Ceiling: at least 12,000 feet AGL
Clouds: scattered clouds at 3500 feet AGL
Weather: no significant weather observed at this time

METAR text: LTFJ 022220Z 04005KT 9999 SCT035 14/13 Q1008 NOSIG RMK RWY24 05003KT
Conditions at: LTFJ (SABIHA GOKCEN , TR) observed 2220 UTC 02 June 2020
Temperature: 14.0°C (57°F)
Dewpoint: 13.0°C (55°F) [RH = 94%]
Pressure (altimeter): 29.76 inches Hg (1008.0 mb)
Winds: from the NE (40 degrees) at 6 MPH (5 knots; 2.6 m/s)
Visibility: 6 or more miles (10+ km)
Ceiling: at least 12,000 feet AGL
Clouds: scattered clouds at 3500 feet AGL
Weather: no significant weather observed at this time

METAR text: LTFJ 022150Z 04005KT 9999 SCT035 14/13 Q1008 NOSIG RMK RWY24 01004KT
Conditions at: LTFJ (SABIHA GOKCEN , TR) observed 2150 UTC 02 June 2020
Temperature: 14.0°C (57°F)
Dewpoint: 13.0°C (55°F) [RH = 94%]
Pressure (altimeter): 29.76 inches Hg (1008.0 mb)
Winds: from the NE (40 degrees) at 6 MPH (5 knots; 2.6 m/s)
Visibility: 6 or more miles (10+ km)
Ceiling: at least 12,000 feet AGL
Clouds: scattered clouds at 3500 feet AGL
Weather: no significant weather observed at this time

METAR text: LTFJ 022120Z 06006KT 9999 SCT035 15/13 Q1008 NOSIG RMK RWY24 01003KT
Conditions at: LTFJ (SABIHA GOKCEN , TR) observed 2120 UTC 02 June 2020
Temperature: 15.0°C (59°F)
Dewpoint: 13.0°C (55°F) [RH = 88%]
Pressure (altimeter): 29.76 inches Hg (1008.0 mb)
Winds: from the ENE (60 degrees) at 7 MPH (6 knots; 3.1 m/s)
Visibility: 6 or more miles (10+ km)
Ceiling: at least 12,000 feet AGL
Clouds: scattered clouds at 3500 feet AGL
Weather: no significant weather observed at this time

METAR text: LTFJ 022050Z 05007KT 9999 SCT035 15/13 Q1008 NOSIG RMK RWY24 04005KT
Conditions at: LTFJ (SABIHA GOKCEN , TR) observed 2050 UTC 02 June 2020
Temperature: 15.0°C (59°F)
Dewpoint: 13.0°C (55°F) [RH = 88%]
Pressure (altimeter): 29.76 inches Hg (1008.0 mb)
Winds: from the NE (50 degrees) at 8 MPH (7 knots; 3.6 m/s)
Visibility: 6 or more miles (10+ km)
Ceiling: at least 12,000 feet AGL
Clouds: scattered clouds at 3500 feet AGL
Weather: no significant weather observed at this time

METAR text: LTFJ 022020Z 05006KT 9999 SCT035 15/13 Q1008 NOSIG
Conditions at: LTFJ (SABIHA GOKCEN , TR) observed 2020 UTC 02 June 2020
Temperature: 15.0°C (59°F)
Dewpoint: 13.0°C (55°F) [RH = 88%]
Pressure (altimeter): 29.76 inches Hg (1008.0 mb)
Winds: from the NE (50 degrees) at 7 MPH (6 knots; 3.1 m/s)
Visibility: 6 or more miles (10+ km)
Ceiling: at least 12,000 feet AGL
Clouds: scattered clouds at 3500 feet AGL
Weather: no significant weather observed at this time

METAR text: LTFJ 021950Z 04006KT 9999 SCT035 15/13 Q1009 NOSIG
Conditions at: LTFJ (SABIHA GOKCEN , TR) observed 1950 UTC 02 June 2020
Temperature: 15.0°C (59°F)
Dewpoint: 13.0°C (55°F) [RH = 88%]
Pressure (altimeter): 29.79 inches Hg (1009.0 mb)
Winds: from the NE (40 degrees) at 7 MPH (6 knots; 3.1 m/s)
Visibility: 6 or more miles (10+ km)
Ceiling: at least 12,000 feet AGL
Clouds: scattered clouds at 3500 feet AGL
Weather: no significant weather observed at this time

METAR text: LTFJ 021920Z 04007KT 9999 SCT035 16/13 Q1009 NOSIG
Conditions at: LTFJ (SABIHA GOKCEN , TR) observed 1920 UTC 02 June 2020
Temperature: 16.0°C (61°F)
Dewpoint: 13.0°C (55°F) [RH = 82%]
Pressure (altimeter): 29.79 inches Hg (1009.0 mb)
Winds: from the NE (40 degrees) at 8 MPH (7 knots; 3.6 m/s)
Visibility: 6 or more miles (10+ km)
Ceiling: at least 12,000 feet AGL
Clouds: scattered clouds at 3500 feet AGL
Weather: no significant weather observed at this time

METAR text: LTFJ 021850Z 05006KT 9999 SCT035 16/13 Q1008 NOSIG
Conditions at: LTFJ (SABIHA GOKCEN , TR) observed 1850 UTC 02 June 2020
Temperature: 16.0°C (61°F)
Dewpoint: 13.0°C (55°F) [RH = 82%]
Pressure (altimeter): 29.76 inches Hg (1008.0 mb)
Winds: from the NE (50 degrees) at 7 MPH (6 knots; 3.1 m/s)
Visibility: 6 or more miles (10+ km)
Ceiling: at least 12,000 feet AGL
Clouds: scattered clouds at 3500 feet AGL
Weather: no significant weather observed at this time

METAR text: LTFJ 021820Z 02007KT 9999 SCT035 16/13 Q1008 NOSIG
Conditions at: LTFJ (SABIHA GOKCEN , TR) observed 1820 UTC 02 June 2020
Temperature: 16.0°C (61°F)
Dewpoint: 13.0°C (55°F) [RH = 82%]
Pressure (altimeter): 29.76 inches Hg (1008.0 mb)
Winds: from the NNE (20 degrees) at 8 MPH (7 knots; 3.6 m/s)
Visibility: 6 or more miles (10+ km)
Ceiling: at least 12,000 feet AGL
Clouds: scattered clouds at 3500 feet AGL
Weather: no significant weather observed at this time

METAR text: LTFJ 021750Z 03006KT 9999 SCT035 16/13 Q1008 NOSIG
Conditions at: LTFJ (SABIHA GOKCEN , TR) observed 1750 UTC 02 June 2020
Temperature: 16.0°C (61°F)
Dewpoint: 13.0°C (55°F) [RH = 82%]
Pressure (altimeter): 29.76 inches Hg (1008.0 mb)
Winds: from the NNE (30 degrees) at 7 MPH (6 knots; 3.1 m/s)
Visibility: 6 or more miles (10+ km)
Ceiling: at least 12,000 feet AGL
Clouds: scattered clouds at 3500 feet AGL
Weather: no significant weather observed at this time

METAR text: LTFJ 021720Z 04009KT 9999 BKN030 17/13 Q1008 NOSIG
Conditions at: LTFJ (SABIHA GOKCEN , TR) observed 1720 UTC 02 June 2020
Temperature: 17.0°C (63°F)
Dewpoint: 13.0°C (55°F) [RH = 77%]
Pressure (altimeter): 29.76 inches Hg (1008.0 mb)
Winds: from the NE (40 degrees) at 10 MPH (9 knots; 4.6 m/s)
Visibility: 6 or more miles (10+ km)
Ceiling: 3000 feet AGL
Clouds: broken clouds at 3000 feet AGL
Weather: no significant weather observed at this time

METAR text: LTFJ 021650Z 03007KT 9999 FEW020TCU SCT035 18/14 Q1008 NOSIG
Conditions at: LTFJ (SABIHA GOKCEN , TR) observed 1650 UTC 02 June 2020
Temperature: 18.0°C (64°F)
Dewpoint: 14.0°C (57°F) [RH = 77%]
Pressure (altimeter): 29.76 inches Hg (1008.0 mb)
Winds: from the NNE (30 degrees) at 8 MPH (7 knots; 3.6 m/s)
Visibility: 6 or more miles (10+ km)
Ceiling: at least 12,000 feet AGL
Clouds: few clouds at 2000 feet AGL
scattered clouds at 3500 feet AGL
Weather: no significant weather observed at this time

METAR text: LTFJ 021620Z 06006KT 9999 FEW020TCU SCT035 BKN080 18/12 Q1007 NOSIG
Conditions at: LTFJ (SABIHA GOKCEN , TR) observed 1620 UTC 02 June 2020
Temperature: 18.0°C (64°F)
Dewpoint: 12.0°C (54°F) [RH = 68%]
Pressure (altimeter): 29.73 inches Hg (1007.0 mb)
Winds: from the ENE (60 degrees) at 7 MPH (6 knots; 3.1 m/s)
Visibility: 6 or more miles (10+ km)
Ceiling: 8000 feet AGL
Clouds: few clouds at 2000 feet AGL
scattered clouds at 3500 feet AGL
broken clouds at 8000 feet AGL
Weather: no significant weather observed at this time

METAR text: LTFJ 021550Z 06006KT 030V090 9999 FEW020TCU SCT035 BKN080 19/13 Q1007 NOSIG
Conditions at: LTFJ (SABIHA GOKCEN , TR) observed 1550 UTC 02 June 2020
Temperature: 19.0°C (66°F)
Dewpoint: 13.0°C (55°F) [RH = 68%]
Pressure (altimeter): 29.73 inches Hg (1007.0 mb)
Winds: from the ENE (60 degrees) at 7 MPH (6 knots; 3.1 m/s)
Visibility: 6 or more miles (10+ km)
Ceiling: 8000 feet AGL
Clouds: few clouds at 2000 feet AGL
scattered clouds at 3500 feet AGL
broken clouds at 8000 feet AGL
Weather: no significant weather observed at this time

METAR text: LTFJ 021520Z 03005KT 330V080 9999 FEW020TCU SCT035 BKN080 20/11 Q1007 NOSIG RMK RWY24 VRB05KT
Conditions at: LTFJ (SABIHA GOKCEN , TR) observed 1520 UTC 02 June 2020
Temperature: 20.0°C (68°F)
Dewpoint: 11.0°C (52°F) [RH = 56%]
Pressure (altimeter): 29.73 inches Hg (1007.0 mb)
Winds: from the NNE (30 degrees) at 6 MPH (5 knots; 2.6 m/s)
Visibility: 6 or more miles (10+ km)
Ceiling: 8000 feet AGL
Clouds: few clouds at 2000 feet AGL
scattered clouds at 3500 feet AGL
broken clouds at 8000 feet AGL
Weather: no significant weather observed at this time

METAR text: LTFJ 021450Z 36006KT 9999 FEW020CB SCT035 BKN080 20/11 Q1007 NOSIG RMK RWY24 35005KT 320V040
Conditions at: LTFJ (SABIHA GOKCEN , TR) observed 1450 UTC 02 June 2020
Temperature: 20.0°C (68°F)
Dewpoint: 11.0°C (52°F) [RH = 56%]
Pressure (altimeter): 29.73 inches Hg (1007.0 mb)
Winds: from the N (360 degrees) at 7 MPH (6 knots; 3.1 m/s)
Visibility: 6 or more miles (10+ km)
Ceiling: 8000 feet AGL
Clouds: few clouds at 2000 feet AGL
scattered clouds at 3500 feet AGL
broken clouds at 8000 feet AGL
Weather: no significant weather observed at this time

METAR text: LTFJ 021420Z 31008KT 280V340 9999 FEW020CB SCT035 BKN080 21/11 Q1007 NOSIG RMK RWY24 35008KT 320V020
Conditions at: LTFJ (SABIHA GOKCEN , TR) observed 1420 UTC 02 June 2020
Temperature: 21.0°C (70°F)
Dewpoint: 11.0°C (52°F) [RH = 53%]
Pressure (altimeter): 29.73 inches Hg (1007.0 mb)
Winds: from the NW (310 degrees) at 9 MPH (8 knots; 4.1 m/s)
Visibility: 6 or more miles (10+ km)
Ceiling: 8000 feet AGL
Clouds: few clouds at 2000 feet AGL
scattered clouds at 3500 feet AGL
broken clouds at 8000 feet AGL
Weather: no significant weather observed at this time

METAR text: LTFJ 021350Z 33012KT 9999 FEW020CB SCT035 BKN080 20/12 Q1007 NOSIG RMK RWY24 33012KT
Conditions at: LTFJ (SABIHA GOKCEN , TR) observed 1350 UTC 02 June 2020
Temperature: 20.0°C (68°F)
Dewpoint: 12.0°C (54°F) [RH = 60%]
Pressure (altimeter): 29.73 inches Hg (1007.0 mb)
Winds: from the NNW (330 degrees) at 14 MPH (12 knots; 6.2 m/s)
Visibility: 6 or more miles (10+ km)
Ceiling: 8000 feet AGL
Clouds: few clouds at 2000 feet AGL
scattered clouds at 3500 feet AGL
broken clouds at 8000 feet AGL
Weather: no significant weather observed at this time

METAR text: LTFJ 021320Z 23007KT 200V260 9999 FEW020CB SCT035 BKN080 21/10 Q1007 NOSIG RMK RWY24 26006KT 200V280
Conditions at: LTFJ (SABIHA GOKCEN , TR) observed 1320 UTC 02 June 2020
Temperature: 21.0°C (70°F)
Dewpoint: 10.0°C (50°F) [RH = 49%]
Pressure (altimeter): 29.73 inches Hg (1007.0 mb)
Winds: from the SW (230 degrees) at 8 MPH (7 knots; 3.6 m/s)
Visibility: 6 or more miles (10+ km)
Ceiling: 8000 feet AGL
Clouds: few clouds at 2000 feet AGL
scattered clouds at 3500 feet AGL
broken clouds at 8000 feet AGL
Weather: no significant weather observed at this time

METAR text: LTFJ 021250Z 24008KT 210V280 9999 FEW024TCU SCT035 BKN080 21/11 Q1007 NOSIG RMK RWY24 27006KT 210V320
Conditions at: LTFJ (SABIHA GOKCEN , TR) observed 1250 UTC 02 June 2020
Temperature: 21.0°C (70°F)
Dewpoint: 11.0°C (52°F) [RH = 53%]
Pressure (altimeter): 29.73 inches Hg (1007.0 mb)
Winds: from the WSW (240 degrees) at 9 MPH (8 knots; 4.1 m/s)
Visibility: 6 or more miles (10+ km)
Ceiling: 8000 feet AGL
Clouds: few clouds at 2400 feet AGL
scattered clouds at 3500 feet AGL
broken clouds at 8000 feet AGL
Weather: no significant weather observed at this time

METAR text: LTFJ 021220Z VRB06KT 9999 FEW024TCU SCT035 BKN080 21/11 Q1007 NOSIG RMK RWY24 33003KT 270V060
Conditions at: LTFJ (SABIHA GOKCEN , TR) observed 1220 UTC 02 June 2020
Temperature: 21.0°C (70°F)
Dewpoint: 11.0°C (52°F) [RH = 53%]
Pressure (altimeter): 29.73 inches Hg (1007.0 mb)
Winds: variable direction winds at 7 MPH (6 knots; 3.1 m/s)
Visibility: 6 or more miles (10+ km)
Ceiling: 8000 feet AGL
Clouds: few clouds at 2400 feet AGL
scattered clouds at 3500 feet AGL
broken clouds at 8000 feet AGL
Weather: no significant weather observed at this time

METAR text: LTFJ 021150Z VRB03KT 9999 FEW020CB SCT035 BKN080 21/10 Q1008 NOSIG RMK RWY24 VRB02KT
Conditions at: LTFJ (SABIHA GOKCEN , TR) observed 1150 UTC 02 June 2020
Temperature: 21.0°C (70°F)
Dewpoint: 10.0°C (50°F) [RH = 49%]
Pressure (altimeter): 29.76 inches Hg (1008.0 mb)
Winds: variable direction winds at 3 MPH (3 knots; 1.5 m/s)
Visibility: 6 or more miles (10+ km)
Ceiling: 8000 feet AGL
Clouds: few clouds at 2000 feet AGL
scattered clouds at 3500 feet AGL
broken clouds at 8000 feet AGL
Weather: no significant weather observed at this time

METAR text: LTFJ 021120Z 03004KT 330V090 9999 FEW020CB SCT035 BKN080 20/11 Q1008 RETSRA NOSIG RMK RWY24 VRB03KT
Conditions at: LTFJ (SABIHA GOKCEN , TR) observed 1120 UTC 02 June 2020
Temperature: 20.0°C (68°F)
Dewpoint: 11.0°C (52°F) [RH = 56%]
Pressure (altimeter): 29.76 inches Hg (1008.0 mb)
Winds: from the NNE (30 degrees) at 5 MPH (4 knots; 2.1 m/s)
Visibility: 6 or more miles (10+ km)
Ceiling: 8000 feet AGL
Clouds: few clouds at 2000 feet AGL
scattered clouds at 3500 feet AGL
broken clouds at 8000 feet AGL
Weather: no significant weather observed at this time

METAR text: LTFJ 021050Z VRB04KT 9999 -TSRA FEW020CB SCT035 BKN080 19/11 Q1008 RETS BECMG TL1120 NSW RMK RWY24 29006KT
Conditions at: LTFJ (SABIHA GOKCEN , TR) observed 1050 UTC 02 June 2020
Temperature: 19.0°C (66°F)
Dewpoint: 11.0°C (52°F) [RH = 60%]
Pressure (altimeter): 29.76 inches Hg (1008.0 mb)
Winds: variable direction winds at 5 MPH (4 knots; 2.1 m/s)
Visibility: 6 or more miles (10+ km)
Ceiling: 8000 feet AGL
Clouds: few clouds at 2000 feet AGL
scattered clouds at 3500 feet AGL
broken clouds at 8000 feet AGL
Weather: -TSRA  (light rain associated with thunderstorm(s))

METAR text: LTFJ 021020Z 23007KT 180V270 9999 TS FEW020CB SCT035 BKN080 19/11 Q1008 TEMPO -TSRA
Conditions at: LTFJ (SABIHA GOKCEN , TR) observed 1020 UTC 02 June 2020
Temperature: 19.0°C (66°F)
Dewpoint: 11.0°C (52°F) [RH = 60%]
Pressure (altimeter): 29.76 inches Hg (1008.0 mb)
Winds: from the SW (230 degrees) at 8 MPH (7 knots; 3.6 m/s)
Visibility: 6 or more miles (10+ km)
Ceiling: 8000 feet AGL
Clouds: few clouds at 2000 feet AGL
scattered clouds at 3500 feet AGL
broken clouds at 8000 feet AGL
Weather: TS  (thunderstorm)

METAR text: LTFJ 020950Z 24007KT 210V280 9999 FEW020CB SCT035 BKN080 19/11 Q1008 TEMPO -TSRA
Conditions at: LTFJ (SABIHA GOKCEN , TR) observed 0950 UTC 02 June 2020
Temperature: 19.0°C (66°F)
Dewpoint: 11.0°C (52°F) [RH = 60%]
Pressure (altimeter): 29.76 inches Hg (1008.0 mb)
Winds: from the WSW (240 degrees) at 8 MPH (7 knots; 3.6 m/s)
Visibility: 6 or more miles (10+ km)
Ceiling: 8000 feet AGL
Clouds: few clouds at 2000 feet AGL
scattered clouds at 3500 feet AGL
broken clouds at 8000 feet AGL
Weather: no significant weather observed at this time

METAR text: LTFJ 020920Z VRB01KT 9999 FEW022TCU SCT035 BKN080 19/09 Q1008 NOSIG RMK RWY24 VRB02KT
Conditions at: LTFJ (SABIHA GOKCEN , TR) observed 0920 UTC 02 June 2020
Temperature: 19.0°C (66°F)
Dewpoint: 9.0°C (48°F) [RH = 52%]
Pressure (altimeter): 29.76 inches Hg (1008.0 mb)
Winds: variable direction winds at 1 MPH (1 knots; 0.5 m/s)
Visibility: 6 or more miles (10+ km)
Ceiling: 8000 feet AGL
Clouds: few clouds at 2200 feet AGL
scattered clouds at 3500 feet AGL
broken clouds at 8000 feet AGL
Weather: no significant weather observed at this time

METAR text: LTFJ 020850Z 10005KT 030V150 9999 FEW022TCU SCT035 BKN080 20/08 Q1008 NOSIG RMK RWY24 11004KT 350V150
Conditions at: LTFJ (SABIHA GOKCEN , TR) observed 0850 UTC 02 June 2020
Temperature: 20.0°C (68°F)
Dewpoint: 8.0°C (46°F) [RH = 46%]
Pressure (altimeter): 29.76 inches Hg (1008.0 mb)
Winds: from the E (100 degrees) at 6 MPH (5 knots; 2.6 m/s)
Visibility: 6 or more miles (10+ km)
Ceiling: 8000 feet AGL
Clouds: few clouds at 2200 feet AGL
scattered clouds at 3500 feet AGL
broken clouds at 8000 feet AGL
Weather: no significant weather observed at this time

METAR text: LTFJ 020820Z 07005KT 020V120 9999 SCT035 BKN080 20/11 Q1009 NOSIG RMK RWY24 VRB02KT
Conditions at: LTFJ (SABIHA GOKCEN , TR) observed 0820 UTC 02 June 2020
Temperature: 20.0°C (68°F)
Dewpoint: 11.0°C (52°F) [RH = 56%]
Pressure (altimeter): 29.79 inches Hg (1009.0 mb)
Winds: from the ENE (70 degrees) at 6 MPH (5 knots; 2.6 m/s)
Visibility: 6 or more miles (10+ km)
Ceiling: 8000 feet AGL
Clouds: scattered clouds at 3500 feet AGL
broken clouds at 8000 feet AGL
Weather: no significant weather observed at this time

METAR text: LTFJ 020750Z 09005KT 060V150 9999 SCT035 BKN080 18/11 Q1009 NOSIG RMK RWY24 09003KT 030V110
Conditions at: LTFJ (SABIHA GOKCEN , TR) observed 0750 UTC 02 June 2020
Temperature: 18.0°C (64°F)
Dewpoint: 11.0°C (52°F) [RH = 64%]
Pressure (altimeter): 29.79 inches Hg (1009.0 mb)
Winds: from the E (90 degrees) at 6 MPH (5 knots; 2.6 m/s)
Visibility: 6 or more miles (10+ km)
Ceiling: 8000 feet AGL
Clouds: scattered clouds at 3500 feet AGL
broken clouds at 8000 feet AGL
Weather: no significant weather observed at this time

METAR text: LTFJ 020720Z 09003KT 020V140 9999 SCT035 BKN100 18/10 Q1009 NOSIG RMK RWY24 VRB01KT
Conditions at: LTFJ (SABIHA GOKCEN , TR) observed 0720 UTC 02 June 2020
Temperature: 18.0°C (64°F)
Dewpoint: 10.0°C (50°F) [RH = 59%]
Pressure (altimeter): 29.79 inches Hg (1009.0 mb)
Winds: from the E (90 degrees) at 3 MPH (3 knots; 1.5 m/s)
Visibility: 6 or more miles (10+ km)
Ceiling: 10000 feet AGL
Clouds: scattered clouds at 3500 feet AGL
broken clouds at 10000 feet AGL
Weather: no significant weather observed at this time

METAR text: LTFJ 020650Z VRB01KT 9999 SCT035 BKN100 17/12 Q1009 NOSIG RMK RWY24 VRB01KT
Conditions at: LTFJ (SABIHA GOKCEN , TR) observed 0650 UTC 02 June 2020
Temperature: 17.0°C (63°F)
Dewpoint: 12.0°C (54°F) [RH = 72%]
Pressure (altimeter): 29.79 inches Hg (1009.0 mb)
Winds: variable direction winds at 1 MPH (1 knots; 0.5 m/s)
Visibility: 6 or more miles (10+ km)
Ceiling: 10000 feet AGL
Clouds: scattered clouds at 3500 feet AGL
broken clouds at 10000 feet AGL
Weather: no significant weather observed at this time

METAR text: LTFJ 020620Z 06003KT 030V090 9999 SCT035 BKN100 16/12 Q1009 NOSIG RMK RWY24 VRB01KT
Conditions at: LTFJ (SABIHA GOKCEN , TR) observed 0620 UTC 02 June 2020
Temperature: 16.0°C (61°F)
Dewpoint: 12.0°C (54°F) [RH = 77%]
Pressure (altimeter): 29.79 inches Hg (1009.0 mb)
Winds: from the ENE (60 degrees) at 3 MPH (3 knots; 1.5 m/s)
Visibility: 6 or more miles (10+ km)
Ceiling: 10000 feet AGL
Clouds: scattered clouds at 3500 feet AGL
broken clouds at 10000 feet AGL
Weather: no significant weather observed at this time

METAR text: LTFJ 020550Z VRB02KT 9999 SCT035 BKN100 16/13 Q1009 NOSIG RMK RWY24 36002KT
Conditions at: LTFJ (SABIHA GOKCEN , TR) observed 0550 UTC 02 June 2020
Temperature: 16.0°C (61°F)
Dewpoint: 13.0°C (55°F) [RH = 82%]
Pressure (altimeter): 29.79 inches Hg (1009.0 mb)
Winds: variable direction winds at 2 MPH (2 knots; 1.0 m/s)
Visibility: 6 or more miles (10+ km)
Ceiling: 10000 feet AGL
Clouds: scattered clouds at 3500 feet AGL
broken clouds at 10000 feet AGL
Weather: no significant weather observed at this time

METAR text: LTFJ 020520Z 04002KT 9999 SCT035 BKN100 15/13 Q1009 NOSIG RMK RWY24 00000KT
Conditions at: LTFJ (SABIHA GOKCEN , TR) observed 0520 UTC 02 June 2020
Temperature: 15.0°C (59°F)
Dewpoint: 13.0°C (55°F) [RH = 88%]
Pressure (altimeter): 29.79 inches Hg (1009.0 mb)
Winds: from the NE (40 degrees) at 2 MPH (2 knots; 1.0 m/s)
Visibility: 6 or more miles (10+ km)
Ceiling: 10000 feet AGL
Clouds: scattered clouds at 3500 feet AGL
broken clouds at 10000 feet AGL
Weather: no significant weather observed at this time

METAR text: LTFJ 020450Z 06004KT 9999 FEW035 BKN100 15/13 Q1008 NOSIG RMK RWY24 00000KT
Conditions at: LTFJ (SABIHA GOKCEN , TR) observed 0450 UTC 02 June 2020
Temperature: 15.0°C (59°F)
Dewpoint: 13.0°C (55°F) [RH = 88%]
Pressure (altimeter): 29.76 inches Hg (1008.0 mb)
Winds: from the ENE (60 degrees) at 5 MPH (4 knots; 2.1 m/s)
Visibility: 6 or more miles (10+ km)
Ceiling: 10000 feet AGL
Clouds: few clouds at 3500 feet AGL
broken clouds at 10000 feet AGL
Weather: no significant weather observed at this time

Forecast for: LTFJ (SABIHA GOKCEN , TR)
Text: TAF LTFJ 031040Z 0312/0412 VRB02KT 9999 SCT035 BKN100
Forecast period: 1200 to 1800 UTC 03 June 2020
Forecast type: FROM: standard forecast or significant change
Winds: variable direction winds at 2 MPH (2 knots; 1.0 m/s)
Visibility: 6 or more miles 10+ km)
Ceiling: 10000 feet AGL
Clouds: scattered clouds at 3500 feet AGL
broken clouds at 10000 feet AGL
Weather: no significant weather forecast for this period
Text: TEMPO 0312/0314 27012KT -SHRA FEW020CB BKN030
Forecast period: 1200 to 1400 UTC 03 June 2020
Forecast type: TEMPORARY: The following changes expected for less than half the time period
Winds: from the W (270 degrees) at 14 MPH (12 knots; 6.2 m/s)
Visibility: missing
Ceiling: 3000 feet AGL
Clouds: few clouds at 2000 feet AGL
broken clouds at 3000 feet AGL
Weather: -SHRA  (light rain showers)
Text: BECMG 0318/0321 CAVOK
Forecast period: 1800 UTC 03 June 2020 to 0500 UTC 04 June 2020
Forecast type: BECOMING: Conditions expected to become as follows by 2100 UTC 03 June 2020
Winds: variable direction winds at 2 MPH (2 knots; 1.0 m/s)
Visibility: 6 or more miles 10+ km)
Ceiling: unknown
Clouds: missing
Weather: NSW  (no significant weather)
Text: PROB30 0401/0405 4000 BR
Forecast period: 0100 to 0500 UTC 04 June 2020
Forecast type: PROBABLE: 30 percent likelihood of the following during this time
Visibility: 2.49 miles (4.01 km)
Ceiling: unknown
Clouds: missing
Weather: BR  (mist)
Text: BECMG 0405/0408 24012KT
Forecast period: 0500 to 1200 UTC 04 June 2020
Forecast type: BECOMING: Conditions expected to become as follows by 0800 UTC 04 June 2020
Winds: from the WSW (240 degrees) at 14 MPH (12 knots; 6.2 m/s)
Visibility: 6 or more miles 10+ km)
Ceiling: unknown
Clouds: missing
Weather: NSW  (no significant weather)